sensor_id;sensor_type;location;lat;lon;timestamp;temperature;humidity
55213;DHT22;41083;52.932;6.674;2024-02-04T00:00:27;8.10;99.90
55213;DHT22;41083;52.932;6.674;2024-02-04T00:02:53;8.10;99.90
55213;DHT22;41083;52.932;6.674;2024-02-04T00:05:19;8.10;99.90
55213;DHT22;41083;52.932;6.674;2024-02-04T00:07:45;8.10;99.90
55213;DHT22;41083;52.932;6.674;2024-02-04T00:10:11;8.10;99.90
55213;DHT22;41083;52.932;6.674;2024-02-04T00:12:37;8.10;99.90
55213;DHT22;41083;52.932;6.674;2024-02-04T00:15:03;8.10;99.90
55213;DHT22;41083;52.932;6.674;2024-02-04T00:17:32;8.10;99.90
55213;DHT22;41083;52.932;6.674;2024-02-04T00:20:03;8.00;99.90
55213;DHT22;41083;52.932;6.674;2024-02-04T00:22:31;8.00;99.90
55213;DHT22;41083;52.932;6.674;2024-02-04T00:24:59;8.00;99.90
55213;DHT22;41083;52.932;6.674;2024-02-04T00:27:30;8.00;99.90
55213;DHT22;41083;52.932;6.674;2024-02-04T00:29:56;8.00;99.90
55213;DHT22;41083;52.932;6.674;2024-02-04T00:32:23;7.90;99.90
55213;DHT22;41083;52.932;6.674;2024-02-04T00:34:48;7.90;99.90
55213;DHT22;41083;52.932;6.674;2024-02-04T00:37:14;7.90;99.90
55213;DHT22;41083;52.932;6.674;2024-02-04T00:39:39;7.90;99.90
55213;DHT22;41083;52.932;6.674;2024-02-04T00:42:05;7.90;99.90
55213;DHT22;41083;52.932;6.674;2024-02-04T00:44:31;7.90;99.90
55213;DHT22;41083;52.932;6.674;2024-02-04T00:46:56;7.90;99.90
55213;DHT22;41083;52.932;6.674;2024-02-04T00:49:22;7.80;99.90
55213;DHT22;41083;52.932;6.674;2024-02-04T00:51:47;7.80;99.90
55213;DHT22;41083;52.932;6.674;2024-02-04T00:54:13;7.80;99.90
55213;DHT22;41083;52.932;6.674;2024-02-04T00:56:39;7.80;99.90
55213;DHT22;41083;52.932;6.674;2024-02-04T00:59:04;7.80;99.90
55213;DHT22;41083;52.932;6.674;2024-02-04T01:01:30;7.70;99.90
55213;DHT22;41083;52.932;6.674;2024-02-04T01:03:55;7.70;99.90
55213;DHT22;41083;52.932;6.674;2024-02-04T01:06:21;7.70;99.90
55213;DHT22;41083;52.932;6.674;2024-02-04T01:08:47;7.70;99.90
55213;DHT22;41083;52.932;6.674;2024-02-04T01:11:12;7.70;99.90
55213;DHT22;41083;52.932;6.674;2024-02-04T01:13:38;7.60;99.90
55213;DHT22;41083;52.932;6.674;2024-02-04T01:16:04;7.60;99.90
55213;DHT22;41083;52.932;6.674;2024-02-04T01:18:29;7.60;99.90
55213;DHT22;41083;52.932;6.674;2024-02-04T01:20:57;7.60;99.90
55213;DHT22;41083;52.932;6.674;2024-02-04T01:23:22;7.60;99.90
55213;DHT22;41083;52.932;6.674;2024-02-04T01:25:48;7.50;99.90
55213;DHT22;41083;52.932;6.674;2024-02-04T01:28:14;7.50;99.90
55213;DHT22;41083;52.932;6.674;2024-02-04T01:30:39;7.50;99.90
55213;DHT22;41083;52.932;6.674;2024-02-04T01:33:05;7.50;99.90
55213;DHT22;41083;52.932;6.674;2024-02-04T01:35:30;7.50;99.90
55213;DHT22;41083;52.932;6.674;2024-02-04T01:37:56;7.50;99.90
55213;DHT22;41083;52.932;6.674;2024-02-04T01:40:22;7.50;99.90
55213;DHT22;41083;52.932;6.674;2024-02-04T01:42:47;7.40;99.90
55213;DHT22;41083;52.932;6.674;2024-02-04T01:45:13;7.50;99.90
55213;DHT22;41083;52.932;6.674;2024-02-04T01:47:39;7.40;99.90
55213;DHT22;41083;52.932;6.674;2024-02-04T01:50:05;7.40;99.90
55213;DHT22;41083;52.932;6.674;2024-02-04T01:52:33;7.40;99.90
55213;DHT22;41083;52.932;6.674;2024-02-04T01:55:00;7.40;99.90
55213;DHT22;41083;52.932;6.674;2024-02-04T01:57:27;7.40;99.90
55213;DHT22;41083;52.932;6.674;2024-02-04T01:59:53;7.40;99.90
55213;DHT22;41083;52.932;6.674;2024-02-04T02:02:20;7.40;99.90
55213;DHT22;41083;52.932;6.674;2024-02-04T02:04:46;7.40;99.90
55213;DHT22;41083;52.932;6.674;2024-02-04T02:07:13;7.40;99.90
55213;DHT22;41083;52.932;6.674;2024-02-04T02:09:42;7.40;99.90
55213;DHT22;41083;52.932;6.674;2024-02-04T02:14:44;7.30;99.90
55213;DHT22;41083;52.932;6.674;2024-02-04T02:17:14;7.30;99.90
55213;DHT22;41083;52.932;6.674;2024-02-04T02:22:30;7.30;99.90
55213;DHT22;41083;52.932;6.674;2024-02-04T02:25:02;7.30;99.90
55213;DHT22;41083;52.932;6.674;2024-02-04T02:27:30;7.30;99.90
55213;DHT22;41083;52.932;6.674;2024-02-04T02:29:56;7.30;99.90
55213;DHT22;41083;52.932;6.674;2024-02-04T02:32:22;7.30;99.90
55213;DHT22;41083;52.932;6.674;2024-02-04T02:34:48;7.20;99.90
55213;DHT22;41083;52.932;6.674;2024-02-04T02:37:44;7.30;99.90
55213;DHT22;41083;52.932;6.674;2024-02-04T02:40:29;7.20;99.90
55213;DHT22;41083;52.932;6.674;2024-02-04T02:42:55;7.20;99.90
55213;DHT22;41083;52.932;6.674;2024-02-04T02:45:23;7.20;99.90
55213;DHT22;41083;52.932;6.674;2024-02-04T02:47:51;7.30;99.90
55213;DHT22;41083;52.932;6.674;2024-02-04T02:50:17;7.30;99.90
55213;DHT22;41083;52.932;6.674;2024-02-04T02:52:43;7.20;99.90
55213;DHT22;41083;52.932;6.674;2024-02-04T02:55:09;7.30;99.90
55213;DHT22;41083;52.932;6.674;2024-02-04T02:57:34;7.30;99.90
55213;DHT22;41083;52.932;6.674;2024-02-04T03:00:00;7.30;99.90
55213;DHT22;41083;52.932;6.674;2024-02-04T03:02:26;7.30;99.90
55213;DHT22;41083;52.932;6.674;2024-02-04T03:04:51;7.30;99.90
55213;DHT22;41083;52.932;6.674;2024-02-04T03:07:17;7.20;99.90
55213;DHT22;41083;52.932;6.674;2024-02-04T03:09:43;7.30;99.90
55213;DHT22;41083;52.932;6.674;2024-02-04T03:12:09;7.30;99.90
55213;DHT22;41083;52.932;6.674;2024-02-04T03:14:35;7.20;99.90
55213;DHT22;41083;52.932;6.674;2024-02-04T03:17:00;7.20;99.90
55213;DHT22;41083;52.932;6.674;2024-02-04T03:19:26;7.20;99.90
55213;DHT22;41083;52.932;6.674;2024-02-04T03:21:52;7.20;99.90
55213;DHT22;41083;52.932;6.674;2024-02-04T03:24:17;7.20;99.90
55213;DHT22;41083;52.932;6.674;2024-02-04T03:26:43;7.20;99.90
55213;DHT22;41083;52.932;6.674;2024-02-04T03:29:09;7.20;99.90
55213;DHT22;41083;52.932;6.674;2024-02-04T03:31:34;7.20;99.90
55213;DHT22;41083;52.932;6.674;2024-02-04T03:34:00;7.20;99.90
55213;DHT22;41083;52.932;6.674;2024-02-04T03:36:25;7.20;99.90
55213;DHT22;41083;52.932;6.674;2024-02-04T03:38:51;7.10;99.90
55213;DHT22;41083;52.932;6.674;2024-02-04T03:41:17;7.10;99.90
55213;DHT22;41083;52.932;6.674;2024-02-04T03:43:43;7.10;99.90
55213;DHT22;41083;52.932;6.674;2024-02-04T03:46:12;7.10;99.90
55213;DHT22;41083;52.932;6.674;2024-02-04T03:48:38;7.10;99.90
55213;DHT22;41083;52.932;6.674;2024-02-04T03:51:03;7.10;99.90
55213;DHT22;41083;52.932;6.674;2024-02-04T03:53:29;7.10;99.90
55213;DHT22;41083;52.932;6.674;2024-02-04T03:55:54;7.10;99.90
55213;DHT22;41083;52.932;6.674;2024-02-04T03:58:20;7.10;99.90
55213;DHT22;41083;52.932;6.674;2024-02-04T04:00:55;7.10;99.90
55213;DHT22;41083;52.932;6.674;2024-02-04T04:03:21;7.10;99.90
55213;DHT22;41083;52.932;6.674;2024-02-04T04:05:46;7.10;99.90
55213;DHT22;41083;52.932;6.674;2024-02-04T04:08:12;7.10;99.90
55213;DHT22;41083;52.932;6.674;2024-02-04T04:10:38;7.10;99.90
55213;DHT22;41083;52.932;6.674;2024-02-04T04:13:04;7.10;99.90
55213;DHT22;41083;52.932;6.674;2024-02-04T04:15:29;7.10;99.90
55213;DHT22;41083;52.932;6.674;2024-02-04T04:17:55;7.10;99.90
55213;DHT22;41083;52.932;6.674;2024-02-04T04:20:21;7.10;99.90
55213;DHT22;41083;52.932;6.674;2024-02-04T04:22:46;7.10;99.90
55213;DHT22;41083;52.932;6.674;2024-02-04T04:25:12;7.10;99.90
55213;DHT22;41083;52.932;6.674;2024-02-04T04:27:39;7.10;99.90
55213;DHT22;41083;52.932;6.674;2024-02-04T04:30:05;7.10;99.90
55213;DHT22;41083;52.932;6.674;2024-02-04T04:32:31;7.10;99.90
55213;DHT22;41083;52.932;6.674;2024-02-04T04:34:57;7.10;99.90
55213;DHT22;41083;52.932;6.674;2024-02-04T04:37:23;7.10;99.90
55213;DHT22;41083;52.932;6.674;2024-02-04T04:39:49;7.10;99.90
55213;DHT22;41083;52.932;6.674;2024-02-04T04:42:14;7.10;99.90
55213;DHT22;41083;52.932;6.674;2024-02-04T04:44:40;7.10;99.90
55213;DHT22;41083;52.932;6.674;2024-02-04T04:47:06;7.10;99.90
55213;DHT22;41083;52.932;6.674;2024-02-04T04:49:31;7.10;99.90
55213;DHT22;41083;52.932;6.674;2024-02-04T04:51:57;7.10;99.90
55213;DHT22;41083;52.932;6.674;2024-02-04T04:54:23;7.10;99.90
55213;DHT22;41083;52.932;6.674;2024-02-04T04:56:48;7.10;99.90
55213;DHT22;41083;52.932;6.674;2024-02-04T04:59:15;7.10;99.90
55213;DHT22;41083;52.932;6.674;2024-02-04T05:01:48;7.10;99.90
55213;DHT22;41083;52.932;6.674;2024-02-04T05:04:15;7.10;99.90
55213;DHT22;41083;52.932;6.674;2024-02-04T05:06:40;7.10;99.90
55213;DHT22;41083;52.932;6.674;2024-02-04T05:09:06;7.10;99.90
55213;DHT22;41083;52.932;6.674;2024-02-04T05:11:31;7.10;99.90
55213;DHT22;41083;52.932;6.674;2024-02-04T05:13:57;7.10;99.90
55213;DHT22;41083;52.932;6.674;2024-02-04T05:16:23;7.10;99.90
55213;DHT22;41083;52.932;6.674;2024-02-04T05:18:49;7.10;99.90
55213;DHT22;41083;52.932;6.674;2024-02-04T05:21:14;7.10;99.90
55213;DHT22;41083;52.932;6.674;2024-02-04T05:23:40;7.10;99.90
55213;DHT22;41083;52.932;6.674;2024-02-04T05:26:06;7.10;99.90
55213;DHT22;41083;52.932;6.674;2024-02-04T05:28:32;7.10;99.90
55213;DHT22;41083;52.932;6.674;2024-02-04T05:30:58;7.10;99.90
55213;DHT22;41083;52.932;6.674;2024-02-04T05:33:24;7.10;99.90
55213;DHT22;41083;52.932;6.674;2024-02-04T05:35:49;7.10;99.90
55213;DHT22;41083;52.932;6.674;2024-02-04T05:38:18;7.10;99.90
55213;DHT22;41083;52.932;6.674;2024-02-04T05:40:44;7.10;99.90
55213;DHT22;41083;52.932;6.674;2024-02-04T05:43:09;7.10;99.90
55213;DHT22;41083;52.932;6.674;2024-02-04T05:45:37;7.10;99.90
55213;DHT22;41083;52.932;6.674;2024-02-04T05:48:04;7.10;99.90
55213;DHT22;41083;52.932;6.674;2024-02-04T05:50:30;7.20;99.90
55213;DHT22;41083;52.932;6.674;2024-02-04T05:52:55;7.20;99.90
55213;DHT22;41083;52.932;6.674;2024-02-04T05:55:21;7.10;99.90
55213;DHT22;41083;52.932;6.674;2024-02-04T05:57:47;7.10;99.90
55213;DHT22;41083;52.932;6.674;2024-02-04T06:00:13;7.20;99.90
55213;DHT22;41083;52.932;6.674;2024-02-04T06:02:38;7.20;99.90
55213;DHT22;41083;52.932;6.674;2024-02-04T06:05:05;7.20;99.90
55213;DHT22;41083;52.932;6.674;2024-02-04T06:07:30;7.10;99.90
55213;DHT22;41083;52.932;6.674;2024-02-04T06:09:56;7.20;99.90
55213;DHT22;41083;52.932;6.674;2024-02-04T06:12:23;7.20;99.90
55213;DHT22;41083;52.932;6.674;2024-02-04T06:14:48;7.20;99.90
55213;DHT22;41083;52.932;6.674;2024-02-04T06:17:15;7.20;99.90
55213;DHT22;41083;52.932;6.674;2024-02-04T06:19:40;7.20;99.90
55213;DHT22;41083;52.932;6.674;2024-02-04T06:22:06;7.20;99.90
55213;DHT22;41083;52.932;6.674;2024-02-04T06:24:31;7.20;99.90
55213;DHT22;41083;52.932;6.674;2024-02-04T06:26:57;7.20;99.90
55213;DHT22;41083;52.932;6.674;2024-02-04T06:29:23;7.20;99.90
55213;DHT22;41083;52.932;6.674;2024-02-04T06:31:48;7.20;99.90
55213;DHT22;41083;52.932;6.674;2024-02-04T06:34:14;7.20;99.90
55213;DHT22;41083;52.932;6.674;2024-02-04T06:36:43;7.20;99.90
55213;DHT22;41083;52.932;6.674;2024-02-04T06:39:11;7.20;99.90
55213;DHT22;41083;52.932;6.674;2024-02-04T06:41:37;7.30;99.90
55213;DHT22;41083;52.932;6.674;2024-02-04T06:44:03;7.30;99.90
55213;DHT22;41083;52.932;6.674;2024-02-04T06:46:30;7.30;99.90
55213;DHT22;41083;52.932;6.674;2024-02-04T06:48:56;7.30;99.90
55213;DHT22;41083;52.932;6.674;2024-02-04T06:51:21;7.30;99.90
55213;DHT22;41083;52.932;6.674;2024-02-04T06:53:47;7.40;99.90
55213;DHT22;41083;52.932;6.674;2024-02-04T06:56:13;7.40;99.90
55213;DHT22;41083;52.932;6.674;2024-02-04T06:58:42;7.40;99.90
55213;DHT22;41083;52.932;6.674;2024-02-04T07:01:08;7.40;99.90
55213;DHT22;41083;52.932;6.674;2024-02-04T07:03:34;7.50;99.90
55213;DHT22;41083;52.932;6.674;2024-02-04T07:06:00;7.40;99.90
55213;DHT22;41083;52.932;6.674;2024-02-04T07:08:26;7.40;99.90
55213;DHT22;41083;52.932;6.674;2024-02-04T07:10:52;7.50;99.90
55213;DHT22;41083;52.932;6.674;2024-02-04T07:13:18;7.50;99.90
55213;DHT22;41083;52.932;6.674;2024-02-04T07:15:44;7.50;99.90
55213;DHT22;41083;52.932;6.674;2024-02-04T07:18:10;7.50;99.90
55213;DHT22;41083;52.932;6.674;2024-02-04T07:20:37;7.60;99.90
55213;DHT22;41083;52.932;6.674;2024-02-04T07:23:03;7.50;99.90
55213;DHT22;41083;52.932;6.674;2024-02-04T07:25:29;7.60;99.90
55213;DHT22;41083;52.932;6.674;2024-02-04T07:27:55;7.60;99.90
55213;DHT22;41083;52.932;6.674;2024-02-04T07:30:22;7.60;99.90
55213;DHT22;41083;52.932;6.674;2024-02-04T07:32:47;7.60;99.90
55213;DHT22;41083;52.932;6.674;2024-02-04T07:35:13;7.60;99.90
55213;DHT22;41083;52.932;6.674;2024-02-04T07:37:38;7.60;99.90
55213;DHT22;41083;52.932;6.674;2024-02-04T07:40:05;7.60;99.90
55213;DHT22;41083;52.932;6.674;2024-02-04T07:42:31;7.60;99.90
55213;DHT22;41083;52.932;6.674;2024-02-04T07:44:57;7.60;99.90
55213;DHT22;41083;52.932;6.674;2024-02-04T07:47:23;7.60;99.90
55213;DHT22;41083;52.932;6.674;2024-02-04T07:49:49;7.60;99.90
55213;DHT22;41083;52.932;6.674;2024-02-04T07:52:15;7.60;99.90
55213;DHT22;41083;52.932;6.674;2024-02-04T07:54:40;7.60;99.90
55213;DHT22;41083;52.932;6.674;2024-02-04T07:57:06;7.60;99.90
55213;DHT22;41083;52.932;6.674;2024-02-04T07:59:32;7.60;99.90
55213;DHT22;41083;52.932;6.674;2024-02-04T08:01:58;7.60;99.90
55213;DHT22;41083;52.932;6.674;2024-02-04T08:04:24;7.60;99.90
55213;DHT22;41083;52.932;6.674;2024-02-04T08:06:49;7.60;99.90
55213;DHT22;41083;52.932;6.674;2024-02-04T08:09:15;7.60;99.90
55213;DHT22;41083;52.932;6.674;2024-02-04T08:11:40;7.70;99.90
55213;DHT22;41083;52.932;6.674;2024-02-04T08:14:06;7.70;99.90
55213;DHT22;41083;52.932;6.674;2024-02-04T08:16:32;7.70;99.90
55213;DHT22;41083;52.932;6.674;2024-02-04T08:18:58;7.70;99.90
55213;DHT22;41083;52.932;6.674;2024-02-04T08:21:24;7.70;99.90
55213;DHT22;41083;52.932;6.674;2024-02-04T08:23:49;7.70;99.90
55213;DHT22;41083;52.932;6.674;2024-02-04T08:26:15;7.70;99.90
55213;DHT22;41083;52.932;6.674;2024-02-04T08:28:41;7.80;99.90
55213;DHT22;41083;52.932;6.674;2024-02-04T08:31:06;7.80;99.90
55213;DHT22;41083;52.932;6.674;2024-02-04T08:33:32;7.80;99.90
55213;DHT22;41083;52.932;6.674;2024-02-04T08:35:58;7.90;99.90
55213;DHT22;41083;52.932;6.674;2024-02-04T08:38:23;7.90;99.90
55213;DHT22;41083;52.932;6.674;2024-02-04T08:40:49;7.90;99.90
55213;DHT22;41083;52.932;6.674;2024-02-04T08:43:15;8.00;99.90
55213;DHT22;41083;52.932;6.674;2024-02-04T08:45:41;8.00;99.90
55213;DHT22;41083;52.932;6.674;2024-02-04T08:48:07;8.00;99.90
55213;DHT22;41083;52.932;6.674;2024-02-04T08:50:32;8.10;99.90
55213;DHT22;41083;52.932;6.674;2024-02-04T08:52:58;8.10;99.90
55213;DHT22;41083;52.932;6.674;2024-02-04T08:55:24;8.10;99.90
55213;DHT22;41083;52.932;6.674;2024-02-04T08:57:49;8.10;99.90
55213;DHT22;41083;52.932;6.674;2024-02-04T09:00:16;8.20;99.90
55213;DHT22;41083;52.932;6.674;2024-02-04T09:02:42;8.20;99.90
55213;DHT22;41083;52.932;6.674;2024-02-04T09:05:08;8.20;99.90
55213;DHT22;41083;52.932;6.674;2024-02-04T09:07:34;8.20;99.90
55213;DHT22;41083;52.932;6.674;2024-02-04T09:09:59;8.20;99.90
55213;DHT22;41083;52.932;6.674;2024-02-04T09:12:25;8.20;99.90
55213;DHT22;41083;52.932;6.674;2024-02-04T09:14:51;8.30;99.90
55213;DHT22;41083;52.932;6.674;2024-02-04T09:17:16;8.30;99.90
55213;DHT22;41083;52.932;6.674;2024-02-04T09:19:42;8.30;99.90
55213;DHT22;41083;52.932;6.674;2024-02-04T09:22:08;8.30;99.90
55213;DHT22;41083;52.932;6.674;2024-02-04T09:24:33;8.30;99.90
55213;DHT22;41083;52.932;6.674;2024-02-04T09:26:59;8.30;99.90
55213;DHT22;41083;52.932;6.674;2024-02-04T09:29:25;8.30;99.90
55213;DHT22;41083;52.932;6.674;2024-02-04T09:31:51;8.30;99.90
55213;DHT22;41083;52.932;6.674;2024-02-04T09:34:17;8.30;99.90
55213;DHT22;41083;52.932;6.674;2024-02-04T09:36:44;8.30;99.90
55213;DHT22;41083;52.932;6.674;2024-02-04T09:39:09;8.40;99.90
55213;DHT22;41083;52.932;6.674;2024-02-04T09:41:35;8.40;99.90
55213;DHT22;41083;52.932;6.674;2024-02-04T09:44:02;8.40;99.90
55213;DHT22;41083;52.932;6.674;2024-02-04T09:46:29;8.40;99.90
55213;DHT22;41083;52.932;6.674;2024-02-04T09:48:55;8.40;99.90
55213;DHT22;41083;52.932;6.674;2024-02-04T09:51:22;8.50;99.90
55213;DHT22;41083;52.932;6.674;2024-02-04T09:53:52;8.50;99.90
55213;DHT22;41083;52.932;6.674;2024-02-04T09:56:18;8.50;99.90
55213;DHT22;41083;52.932;6.674;2024-02-04T09:58:46;8.50;99.90
55213;DHT22;41083;52.932;6.674;2024-02-04T10:01:12;8.50;99.90
55213;DHT22;41083;52.932;6.674;2024-02-04T10:03:39;8.50;99.90
55213;DHT22;41083;52.932;6.674;2024-02-04T10:06:05;8.60;99.90
55213;DHT22;41083;52.932;6.674;2024-02-04T10:08:30;8.60;99.90
55213;DHT22;41083;52.932;6.674;2024-02-04T10:10:56;8.60;99.90
55213;DHT22;41083;52.932;6.674;2024-02-04T10:13:23;8.70;99.90
55213;DHT22;41083;52.932;6.674;2024-02-04T10:15:50;8.70;99.90
55213;DHT22;41083;52.932;6.674;2024-02-04T10:18:17;8.80;99.90
55213;DHT22;41083;52.932;6.674;2024-02-04T10:20:43;8.80;99.90
55213;DHT22;41083;52.932;6.674;2024-02-04T10:23:08;8.80;99.90
55213;DHT22;41083;52.932;6.674;2024-02-04T10:25:34;8.80;99.90
55213;DHT22;41083;52.932;6.674;2024-02-04T10:28:00;8.80;99.90
55213;DHT22;41083;52.932;6.674;2024-02-04T10:30:26;8.80;99.90
55213;DHT22;41083;52.932;6.674;2024-02-04T10:32:52;8.80;99.90
55213;DHT22;41083;52.932;6.674;2024-02-04T10:35:20;8.90;99.90
55213;DHT22;41083;52.932;6.674;2024-02-04T10:37:48;8.80;99.90
55213;DHT22;41083;52.932;6.674;2024-02-04T10:40:14;8.80;99.90
55213;DHT22;41083;52.932;6.674;2024-02-04T10:42:42;8.90;99.90
55213;DHT22;41083;52.932;6.674;2024-02-04T10:45:09;8.90;99.90
55213;DHT22;41083;52.932;6.674;2024-02-04T10:47:38;8.90;99.90
55213;DHT22;41083;52.932;6.674;2024-02-04T10:50:05;8.90;99.90
55213;DHT22;41083;52.932;6.674;2024-02-04T10:52:40;9.00;99.90
55213;DHT22;41083;52.932;6.674;2024-02-04T10:55:11;9.00;99.90
55213;DHT22;41083;52.932;6.674;2024-02-04T10:57:38;9.00;99.90
55213;DHT22;41083;52.932;6.674;2024-02-04T11:00:05;9.00;99.90
55213;DHT22;41083;52.932;6.674;2024-02-04T11:02:38;9.10;99.90
55213;DHT22;41083;52.932;6.674;2024-02-04T11:05:05;9.10;99.90
55213;DHT22;41083;52.932;6.674;2024-02-04T11:07:32;9.10;99.90
55213;DHT22;41083;52.932;6.674;2024-02-04T11:10:01;9.10;99.90
55213;DHT22;41083;52.932;6.674;2024-02-04T11:12:30;9.10;99.90
55213;DHT22;41083;52.932;6.674;2024-02-04T11:15:00;9.10;99.90
55213;DHT22;41083;52.932;6.674;2024-02-04T11:17:35;9.10;99.90
55213;DHT22;41083;52.932;6.674;2024-02-04T11:28:06;9.10;99.90
55213;DHT22;41083;52.932;6.674;2024-02-04T11:30:35;9.20;99.90
55213;DHT22;41083;52.932;6.674;2024-02-04T11:33:05;9.10;99.90
55213;DHT22;41083;52.932;6.674;2024-02-04T11:35:32;9.20;99.90
55213;DHT22;41083;52.932;6.674;2024-02-04T11:37:58;9.20;99.90
55213;DHT22;41083;52.932;6.674;2024-02-04T11:40:34;9.20;99.90
55213;DHT22;41083;52.932;6.674;2024-02-04T11:43:17;9.20;99.90
55213;DHT22;41083;52.932;6.674;2024-02-04T11:45:43;9.30;99.90
55213;DHT22;41083;52.932;6.674;2024-02-04T11:48:11;9.20;99.90
55213;DHT22;41083;52.932;6.674;2024-02-04T11:50:37;9.20;99.90
55213;DHT22;41083;52.932;6.674;2024-02-04T11:53:11;9.20;99.90
55213;DHT22;41083;52.932;6.674;2024-02-04T11:55:40;9.30;99.90
55213;DHT22;41083;52.932;6.674;2024-02-04T11:58:06;9.30;99.90
55213;DHT22;41083;52.932;6.674;2024-02-04T12:00:33;9.30;99.90
55213;DHT22;41083;52.932;6.674;2024-02-04T12:03:04;9.30;99.90
55213;DHT22;41083;52.932;6.674;2024-02-04T12:05:37;9.30;99.90
55213;DHT22;41083;52.932;6.674;2024-02-04T12:08:05;9.30;99.90
55213;DHT22;41083;52.932;6.674;2024-02-04T12:10:31;9.40;99.90
55213;DHT22;41083;52.932;6.674;2024-02-04T12:13:05;9.40;99.90
55213;DHT22;41083;52.932;6.674;2024-02-04T12:15:32;9.40;99.90
55213;DHT22;41083;52.932;6.674;2024-02-04T12:18:06;9.40;99.90
55213;DHT22;41083;52.932;6.674;2024-02-04T12:20:32;9.40;99.90
55213;DHT22;41083;52.932;6.674;2024-02-04T12:22:58;9.40;99.90
55213;DHT22;41083;52.932;6.674;2024-02-04T12:25:24;9.40;99.90
55213;DHT22;41083;52.932;6.674;2024-02-04T12:27:52;9.40;99.90
55213;DHT22;41083;52.932;6.674;2024-02-04T12:30:18;9.40;99.90
55213;DHT22;41083;52.932;6.674;2024-02-04T12:32:43;9.40;99.90
55213;DHT22;41083;52.932;6.674;2024-02-04T12:35:13;9.40;99.90
55213;DHT22;41083;52.932;6.674;2024-02-04T12:37:52;9.40;99.90
55213;DHT22;41083;52.932;6.674;2024-02-04T12:40:28;9.40;99.90
55213;DHT22;41083;52.932;6.674;2024-02-04T12:42:58;9.40;99.90
55213;DHT22;41083;52.932;6.674;2024-02-04T12:45:25;9.40;99.90
55213;DHT22;41083;52.932;6.674;2024-02-04T12:48:01;9.40;99.90
55213;DHT22;41083;52.932;6.674;2024-02-04T12:50:28;9.30;99.90
55213;DHT22;41083;52.932;6.674;2024-02-04T12:53:07;9.40;99.90
55213;DHT22;41083;52.932;6.674;2024-02-04T12:55:34;9.30;99.90
55213;DHT22;41083;52.932;6.674;2024-02-04T12:58:13;9.30;99.90
55213;DHT22;41083;52.932;6.674;2024-02-04T13:00:42;9.30;99.90
55213;DHT22;41083;52.932;6.674;2024-02-04T13:03:08;9.30;99.90
55213;DHT22;41083;52.932;6.674;2024-02-04T13:05:35;9.30;99.90
55213;DHT22;41083;52.932;6.674;2024-02-04T13:08:03;9.30;99.90
55213;DHT22;41083;52.932;6.674;2024-02-04T13:10:33;9.30;99.90
55213;DHT22;41083;52.932;6.674;2024-02-04T13:13:01;9.30;99.90
55213;DHT22;41083;52.932;6.674;2024-02-04T13:15:28;9.30;99.90
55213;DHT22;41083;52.932;6.674;2024-02-04T13:17:54;9.30;99.90
55213;DHT22;41083;52.932;6.674;2024-02-04T13:20:21;9.30;99.90
55213;DHT22;41083;52.932;6.674;2024-02-04T13:22:46;9.30;99.90
55213;DHT22;41083;52.932;6.674;2024-02-04T13:25:12;9.30;99.90
55213;DHT22;41083;52.932;6.674;2024-02-04T13:27:38;9.30;99.90
55213;DHT22;41083;52.932;6.674;2024-02-04T13:30:04;9.20;99.90
55213;DHT22;41083;52.932;6.674;2024-02-04T13:32:31;9.20;99.90
55213;DHT22;41083;52.932;6.674;2024-02-04T13:34:57;9.20;99.90
55213;DHT22;41083;52.932;6.674;2024-02-04T13:37:23;9.20;99.90
55213;DHT22;41083;52.932;6.674;2024-02-04T13:39:48;9.20;99.90
55213;DHT22;41083;52.932;6.674;2024-02-04T13:42:14;9.20;99.90
55213;DHT22;41083;52.932;6.674;2024-02-04T13:44:40;9.20;99.90
55213;DHT22;41083;52.932;6.674;2024-02-04T13:47:06;9.20;99.90
55213;DHT22;41083;52.932;6.674;2024-02-04T13:49:32;9.20;99.90
55213;DHT22;41083;52.932;6.674;2024-02-04T13:51:57;9.20;99.90
55213;DHT22;41083;52.932;6.674;2024-02-04T13:54:23;9.20;99.90
55213;DHT22;41083;52.932;6.674;2024-02-04T13:56:49;9.20;99.90
55213;DHT22;41083;52.932;6.674;2024-02-04T13:59:15;9.30;99.90
55213;DHT22;41083;52.932;6.674;2024-02-04T14:01:41;9.20;99.90
55213;DHT22;41083;52.932;6.674;2024-02-04T14:04:07;9.20;99.90
55213;DHT22;41083;52.932;6.674;2024-02-04T14:06:33;9.30;99.90
55213;DHT22;41083;52.932;6.674;2024-02-04T14:08:58;9.20;99.90
55213;DHT22;41083;52.932;6.674;2024-02-04T14:11:24;9.20;99.90
55213;DHT22;41083;52.932;6.674;2024-02-04T14:13:50;9.20;99.90
55213;DHT22;41083;52.932;6.674;2024-02-04T14:16:15;9.20;99.90
55213;DHT22;41083;52.932;6.674;2024-02-04T14:18:42;9.20;99.90
55213;DHT22;41083;52.932;6.674;2024-02-04T14:21:11;9.20;99.90
55213;DHT22;41083;52.932;6.674;2024-02-04T14:23:40;9.20;99.90
55213;DHT22;41083;52.932;6.674;2024-02-04T14:26:05;9.10;99.90
55213;DHT22;41083;52.932;6.674;2024-02-04T14:28:33;9.10;99.90
55213;DHT22;41083;52.932;6.674;2024-02-04T14:31:07;9.10;99.90
55213;DHT22;41083;52.932;6.674;2024-02-04T14:33:32;9.10;99.90
55213;DHT22;41083;52.932;6.674;2024-02-04T14:35:58;9.10;99.90
55213;DHT22;41083;52.932;6.674;2024-02-04T14:38:26;9.00;99.90
55213;DHT22;41083;52.932;6.674;2024-02-04T14:40:52;9.00;99.90
55213;DHT22;41083;52.932;6.674;2024-02-04T14:43:17;9.00;99.90
55213;DHT22;41083;52.932;6.674;2024-02-04T14:45:44;9.00;99.90
55213;DHT22;41083;52.932;6.674;2024-02-04T14:48:09;9.00;99.90
55213;DHT22;41083;52.932;6.674;2024-02-04T14:50:35;9.00;99.90
55213;DHT22;41083;52.932;6.674;2024-02-04T14:53:01;9.00;99.90
55213;DHT22;41083;52.932;6.674;2024-02-04T14:55:27;9.00;99.90
55213;DHT22;41083;52.932;6.674;2024-02-04T14:57:52;9.00;99.90
55213;DHT22;41083;52.932;6.674;2024-02-04T15:00:18;9.00;99.90
55213;DHT22;41083;52.932;6.674;2024-02-04T15:02:46;9.00;99.90
55213;DHT22;41083;52.932;6.674;2024-02-04T15:05:12;9.00;99.90
55213;DHT22;41083;52.932;6.674;2024-02-04T15:07:38;9.00;99.90
55213;DHT22;41083;52.932;6.674;2024-02-04T15:10:03;9.00;99.90
55213;DHT22;41083;52.932;6.674;2024-02-04T15:12:30;9.00;99.90
55213;DHT22;41083;52.932;6.674;2024-02-04T15:14:57;9.00;99.90
55213;DHT22;41083;52.932;6.674;2024-02-04T15:17:23;8.90;99.90
55213;DHT22;41083;52.932;6.674;2024-02-04T15:19:49;8.90;99.90
55213;DHT22;41083;52.932;6.674;2024-02-04T15:22:15;9.00;99.90
55213;DHT22;41083;52.932;6.674;2024-02-04T15:24:41;9.00;99.90
55213;DHT22;41083;52.932;6.674;2024-02-04T15:27:07;8.90;99.90
55213;DHT22;41083;52.932;6.674;2024-02-04T15:29:35;8.90;99.90
55213;DHT22;41083;52.932;6.674;2024-02-04T15:32:02;8.90;99.90
55213;DHT22;41083;52.932;6.674;2024-02-04T15:34:28;8.90;99.90
55213;DHT22;41083;52.932;6.674;2024-02-04T15:36:58;8.90;99.90
55213;DHT22;41083;52.932;6.674;2024-02-04T15:39:24;8.90;99.90
55213;DHT22;41083;52.932;6.674;2024-02-04T15:41:50;8.90;99.90
55213;DHT22;41083;52.932;6.674;2024-02-04T15:44:16;8.90;99.90
55213;DHT22;41083;52.932;6.674;2024-02-04T15:46:45;8.90;99.90
55213;DHT22;41083;52.932;6.674;2024-02-04T15:49:13;8.90;99.90
55213;DHT22;41083;52.932;6.674;2024-02-04T15:51:40;8.90;99.90
55213;DHT22;41083;52.932;6.674;2024-02-04T15:54:05;9.00;99.90